createdAt,value
2023-08-11T00:01:26.347Z,61.20
2023-08-11T00:03:54.650Z,81.30
2023-08-11T00:06:22.838Z,104.00
2023-08-11T00:08:50.767Z,111.50
2023-08-11T00:11:19.554Z,113.70
2023-08-11T00:13:47.728Z,128.80
2023-08-11T00:16:15.907Z,126.40
2023-08-11T00:18:43.774Z,119.10
2023-08-11T00:21:14.039Z,128.80
2023-08-11T00:23:44.105Z,112.10
2023-08-11T00:26:12.344Z,98.70
2023-08-11T00:28:40.288Z,100.10
2023-08-11T00:31:09.615Z,66.10
2023-08-11T00:33:37.720Z,49.20
2023-08-11T00:36:05.964Z,45.20
2023-08-11T00:38:39.167Z,44.20
2023-08-11T00:41:07.883Z,34.70
2023-08-11T00:43:35.944Z,36.60
2023-08-11T00:46:12.502Z,33.40
2023-08-11T00:48:43.683Z,29.50
2023-08-11T00:51:14.737Z,22.80
2023-08-11T00:53:43.475Z,20.70
2023-08-11T00:56:11.619Z,24.90
2023-08-11T00:58:39.762Z,27.60
2023-08-11T01:01:07.828Z,30.40
2023-08-11T01:03:35.955Z,27.90
2023-08-11T01:06:04.524Z,32.10
2023-08-11T01:08:40.099Z,26.60
2023-08-11T01:11:33.062Z,16.90
2023-08-11T01:14:05.081Z,16.10
2023-08-11T01:16:34.318Z,8.20
2023-08-11T01:19:02.673Z,8.10
2023-08-11T01:21:31.331Z,15.40
2023-08-11T01:23:59.365Z,14.90
2023-08-11T01:26:28.020Z,7.80
2023-08-11T01:28:56.862Z,7.60
2023-08-11T01:31:24.849Z,8.90
2023-08-11T01:33:52.986Z,13.10
2023-08-11T01:36:20.997Z,15.70
2023-08-11T01:38:48.978Z,12.40
2023-08-11T01:41:17.016Z,9.20
2023-08-11T01:43:45.708Z,10.50
2023-08-11T01:46:14.001Z,6.10
2023-08-11T01:48:42.127Z,6.60
2023-08-11T01:51:10.139Z,5.70
2023-08-11T01:53:39.229Z,11.20
2023-08-11T01:56:07.531Z,11.60
2023-08-11T01:58:35.765Z,13.60
2023-08-11T02:01:04.248Z,18.30
2023-08-11T02:03:32.358Z,21.70
2023-08-11T02:06:00.856Z,25.40
2023-08-11T02:08:29.805Z,25.40
2023-08-11T02:10:59.288Z,36.20
2023-08-11T02:13:27.388Z,28.70
2023-08-11T02:16:03.110Z,27.50
2023-08-11T02:18:31.930Z,18.00
2023-08-11T02:20:59.973Z,14.20
2023-08-11T02:23:28.157Z,11.70
2023-08-11T02:25:56.246Z,13.60
2023-08-11T02:28:24.382Z,15.00
2023-08-11T02:30:52.294Z,15.90
2023-08-11T02:33:22.054Z,9.90
2023-08-11T02:35:50.087Z,11.40
2023-08-11T02:38:18.419Z,10.40
2023-08-11T02:40:46.395Z,10.30
2023-08-11T02:43:14.256Z,6.90
2023-08-11T02:45:44.782Z,10.30
2023-08-11T02:48:12.859Z,14.90
2023-08-11T02:50:40.977Z,16.90
2023-08-11T02:53:09.428Z,15.70
2023-08-11T02:55:37.585Z,13.10
2023-08-11T02:58:05.737Z,10.00
2023-08-11T03:00:34.775Z,7.30
2023-08-11T03:03:02.912Z,8.00
2023-08-11T03:05:31.364Z,8.80
2023-08-11T03:07:59.752Z,14.70
2023-08-11T03:10:28.877Z,15.50
2023-08-11T03:12:58.252Z,12.60
2023-08-11T03:15:26.295Z,14.80
2023-08-11T03:17:56.071Z,11.20
2023-08-11T03:20:25.623Z,12.40
2023-08-11T03:22:53.778Z,10.30
2023-08-11T03:25:23.414Z,13.60
2023-08-11T03:27:51.849Z,7.30
2023-08-11T03:30:24.792Z,11.30
2023-08-11T03:32:54.800Z,10.20
2023-08-11T03:35:29.083Z,30.30
2023-08-11T03:37:57.036Z,43.50
2023-08-11T03:40:25.606Z,24.70
2023-08-11T03:42:54.806Z,37.90
2023-08-11T03:45:23.300Z,44.10
2023-08-11T03:47:51.911Z,76.70
2023-08-11T03:50:23.999Z,69.10
2023-08-11T03:52:52.097Z,77.30
2023-08-11T03:55:20.258Z,87.80
2023-08-11T03:57:49.232Z,69.20
2023-08-11T04:00:21.248Z,68.90
2023-08-11T04:03:03.039Z,63.20
2023-08-11T04:05:31.831Z,78.40
2023-08-11T04:07:59.876Z,68.60
2023-08-11T04:10:28.031Z,47.50
2023-08-11T04:12:55.904Z,39.80
2023-08-11T04:15:25.671Z,28.70
2023-08-11T04:17:53.754Z,20.70
2023-08-11T04:20:23.614Z,17.20
2023-08-11T04:22:51.800Z,17.10
2023-08-11T04:25:19.986Z,17.10
2023-08-11T04:27:48.999Z,23.70
2023-08-11T04:30:17.023Z,23.90
2023-08-11T04:32:47.393Z,31.90
2023-08-11T04:35:16.438Z,21.50
2023-08-11T04:37:44.975Z,15.40
2023-08-11T04:40:15.522Z,12.40
2023-08-11T04:42:45.872Z,11.10
2023-08-11T04:45:16.440Z,11.40
2023-08-11T04:47:44.611Z,9.90
2023-08-11T04:50:15.181Z,8.50
2023-08-11T04:52:46.173Z,8.50
2023-08-11T04:55:16.445Z,8.10
2023-08-11T04:57:45.099Z,8.60
2023-08-11T05:00:15.438Z,7.80
2023-08-11T05:02:45.044Z,10.30
2023-08-11T05:05:13.116Z,12.40
2023-08-11T05:07:41.358Z,12.30
2023-08-11T05:10:10.250Z,12.40
2023-08-11T05:12:38.771Z,21.70
2023-08-11T05:15:07.856Z,25.10
2023-08-11T05:17:36.057Z,38.00
2023-08-11T05:20:08.871Z,75.10
2023-08-11T05:22:37.482Z,116.30
2023-08-11T05:25:06.162Z,82.90
2023-08-11T05:27:34.286Z,44.50
2023-08-11T05:30:02.366Z,24.70
2023-08-11T05:32:31.289Z,17.60
2023-08-11T06:24:15.173Z,73.20
2023-08-11T06:26:44.285Z,61.40
2023-08-11T06:29:12.330Z,90.40
2023-08-11T06:31:40.673Z,105.10
2023-08-11T06:34:08.561Z,65.20
2023-08-11T06:36:37.023Z,41.50
2023-08-11T06:39:05.707Z,51.90
2023-08-11T06:41:33.659Z,33.30
2023-08-11T06:44:01.502Z,26.70
2023-08-11T06:46:29.487Z,22.10
2023-08-11T06:48:57.591Z,22.30
2023-08-11T06:51:25.551Z,20.30
2023-08-11T06:53:53.810Z,29.30
2023-08-11T06:56:21.712Z,23.20
2023-08-11T06:58:49.634Z,22.20
2023-08-11T07:01:19.565Z,21.40
2023-08-11T07:03:47.746Z,22.20
2023-08-11T07:06:16.335Z,22.70
2023-08-11T07:08:44.511Z,19.50
2023-08-11T07:11:12.644Z,19.30
2023-08-11T07:13:40.730Z,21.20
2023-08-11T07:16:08.660Z,20.40
2023-08-11T07:18:36.737Z,26.40
2023-08-11T07:21:04.702Z,26.70
2023-08-11T07:23:33.626Z,30.70
2023-08-11T07:26:01.566Z,29.00
2023-08-11T07:28:29.767Z,44.20
2023-08-11T07:30:57.759Z,73.60
2023-08-11T07:33:25.913Z,83.60
2023-08-11T07:35:53.743Z,86.90
2023-08-11T07:38:21.885Z,57.10
2023-08-11T07:40:50.108Z,53.60
2023-08-11T07:43:18.098Z,46.70
2023-08-11T07:45:46.222Z,54.30
2023-08-11T07:48:14.527Z,43.30
2023-08-11T07:50:42.930Z,32.70
2023-08-11T07:53:11.082Z,29.10
2023-08-11T07:55:39.109Z,28.50
2023-08-11T07:58:07.030Z,22.70
2023-08-11T08:00:34.944Z,20.60
2023-08-11T08:03:03.111Z,20.50
2023-08-11T08:05:32.440Z,20.10
2023-08-11T08:08:00.521Z,18.00
2023-08-11T08:10:29.442Z,19.20
2023-08-11T08:12:57.474Z,20.40
2023-08-11T08:15:25.876Z,21.50
2023-08-11T08:17:53.825Z,22.90
2023-08-11T08:20:22.146Z,19.80
2023-08-11T08:22:50.049Z,16.10
2023-08-11T08:25:18.081Z,15.50
2023-08-11T08:27:46.937Z,17.30
2023-08-11T08:30:15.051Z,15.80
2023-08-11T08:32:43.562Z,18.10
2023-08-11T08:35:11.834Z,19.60
2023-08-11T08:37:39.927Z,17.10
2023-08-11T08:40:09.894Z,16.60
2023-08-11T08:42:38.092Z,20.60
2023-08-11T08:45:08.267Z,23.40
2023-08-11T08:47:37.272Z,19.50
2023-08-11T08:50:06.660Z,18.40
2023-08-11T08:52:34.865Z,19.50
2023-08-11T08:55:04.226Z,54.90
2023-08-11T08:57:32.297Z,17.90
2023-08-11T09:00:00.416Z,19.50
2023-08-11T09:02:29.503Z,19.30
2023-08-11T09:04:57.741Z,21.10
2023-08-11T09:07:26.034Z,36.60
2023-08-11T09:09:54.422Z,36.60
2023-08-11T09:12:22.660Z,58.00
2023-08-11T09:14:50.600Z,69.40
2023-08-11T09:17:18.766Z,84.60
2023-08-11T09:19:53.624Z,82.50
2023-08-11T09:22:26.058Z,87.40
2023-08-11T09:24:55.339Z,77.40
2023-08-11T09:27:23.491Z,92.50
2023-08-11T09:29:51.450Z,222.70
2023-08-11T09:32:24.821Z,150.20
2023-08-11T09:34:54.943Z,110.00
2023-08-11T09:37:24.176Z,78.40
2023-08-11T09:39:56.664Z,75.50
2023-08-11T09:42:27.635Z,62.40
2023-08-11T09:44:55.947Z,51.20
2023-08-11T09:47:24.033Z,41.90
2023-08-11T09:49:52.088Z,36.80
2023-08-11T09:52:20.127Z,36.90
2023-08-11T09:54:48.405Z,29.90
2023-08-11T09:57:16.428Z,22.70
2023-08-11T09:59:45.860Z,28.30
2023-08-11T10:02:17.215Z,21.40
2023-08-11T10:04:58.363Z,20.90
2023-08-11T10:07:36.854Z,16.50
2023-08-11T10:10:08.084Z,21.30
2023-08-11T10:12:38.270Z,20.20
2023-08-11T10:15:08.085Z,14.90
2023-08-11T10:17:36.707Z,13.60
2023-08-11T10:20:06.739Z,15.30
2023-08-11T10:22:34.929Z,12.30
2023-08-11T10:25:04.143Z,13.40
2023-08-11T10:27:32.249Z,14.50
2023-08-11T10:30:00.314Z,16.10
2023-08-11T10:32:34.639Z,16.80
2023-08-11T10:35:02.794Z,12.40
2023-08-11T10:37:32.590Z,17.50
2023-08-11T10:40:10.573Z,25.20
2023-08-11T10:42:39.006Z,50.50
2023-08-11T10:45:11.291Z,57.60
2023-08-11T10:47:40.260Z,71.00
2023-08-11T10:50:09.756Z,45.60
2023-08-11T10:52:37.967Z,34.10
2023-08-11T10:55:06.770Z,33.70
2023-08-11T10:57:35.819Z,35.20
2023-08-11T11:00:05.257Z,31.20
2023-08-11T11:02:36.631Z,62.00
2023-08-11T11:05:09.198Z,98.60
2023-08-11T11:07:40.038Z,87.70
2023-08-11T11:10:09.423Z,78.90
2023-08-11T11:12:37.333Z,50.60
2023-08-11T11:15:05.841Z,39.20
2023-08-11T11:17:33.912Z,32.00
2023-08-11T11:20:03.402Z,31.40
2023-08-11T11:22:31.725Z,69.00
2023-08-11T11:25:02.935Z,102.80
2023-08-11T11:27:30.771Z,137.10
2023-08-11T11:30:02.011Z,134.10
2023-08-11T11:32:30.123Z,76.20
2023-08-11T11:34:58.331Z,80.80
2023-08-11T11:37:26.539Z,81.30
2023-08-11T11:39:55.056Z,48.10
2023-08-11T11:42:23.210Z,52.10
2023-08-11T11:44:51.284Z,107.30
2023-08-11T11:47:19.375Z,154.00
2023-08-11T11:49:55.318Z,177.00
2023-08-11T11:52:23.570Z,91.80
2023-08-11T11:54:56.077Z,69.40
2023-08-11T11:57:24.268Z,38.70
2023-08-11T11:59:52.242Z,46.80
2023-08-11T12:02:22.818Z,33.30
2023-08-11T12:04:52.215Z,33.20
2023-08-11T12:07:33.370Z,38.30
2023-08-11T12:10:01.401Z,42.70
2023-08-11T12:12:29.699Z,48.00
2023-08-11T12:15:05.422Z,42.00
2023-08-11T12:17:37.102Z,30.40
2023-08-11T12:20:07.537Z,25.50
2023-08-11T12:22:35.522Z,18.40
2023-08-11T12:25:03.548Z,23.70
2023-08-11T12:27:31.513Z,21.40
2023-08-11T12:29:59.737Z,17.80
2023-08-11T12:32:27.853Z,20.30
2023-08-11T12:34:55.746Z,23.50
2023-08-11T12:37:23.948Z,18.90
2023-08-11T12:39:52.596Z,20.70
2023-08-11T12:42:20.592Z,15.10
2023-08-11T12:44:48.678Z,17.00
2023-08-11T12:47:16.862Z,14.60
2023-08-11T12:49:44.772Z,21.30
2023-08-11T12:52:13.253Z,12.90
2023-08-11T12:54:41.411Z,19.00
2023-08-11T12:57:09.452Z,16.00
2023-08-11T12:59:37.296Z,13.40
2023-08-11T13:02:05.695Z,15.20
2023-08-11T13:04:33.872Z,15.50
2023-08-11T13:07:02.157Z,17.60
2023-08-11T13:09:30.150Z,19.20
2023-08-11T13:11:58.301Z,22.10
2023-08-11T13:14:26.840Z,18.00
2023-08-11T13:16:55.087Z,14.10
2023-08-11T13:19:23.069Z,16.60
2023-08-11T13:21:51.196Z,15.10
2023-08-11T13:24:21.376Z,15.40
2023-08-11T13:26:49.774Z,13.80
2023-08-11T13:29:17.669Z,19.70
2023-08-11T13:31:46.065Z,16.60
2023-08-11T13:34:14.289Z,29.30
2023-08-11T13:36:43.593Z,29.10
2023-08-11T13:39:12.038Z,35.10
2023-08-11T13:41:41.727Z,33.90
2023-08-11T13:44:11.977Z,31.70
2023-08-11T13:46:40.552Z,30.90
2023-08-11T13:49:08.612Z,35.00
2023-08-11T13:51:36.585Z,24.10
2023-08-11T13:54:05.131Z,26.20
2023-08-11T13:56:36.314Z,33.40
2023-08-11T13:59:04.602Z,31.30
2023-08-11T14:01:32.636Z,34.00
2023-08-11T14:04:00.838Z,35.70
2023-08-11T14:06:28.970Z,38.00
2023-08-11T14:08:57.855Z,32.30
2023-08-11T14:11:25.766Z,23.90
2023-08-11T14:13:53.838Z,35.30
2023-08-11T14:16:21.951Z,39.40
2023-08-11T14:18:50.014Z,32.30
2023-08-11T14:21:19.734Z,35.60
2023-08-11T14:23:48.326Z,27.70
2023-08-11T14:26:16.420Z,25.30
2023-08-11T14:28:44.428Z,20.10
2023-08-11T14:31:12.352Z,22.40
2023-08-11T14:33:42.542Z,41.50
2023-08-11T14:36:13.368Z,31.60
2023-08-11T14:38:42.126Z,41.60
2023-08-11T14:41:10.207Z,36.60
2023-08-11T14:43:38.236Z,32.90
2023-08-11T14:46:06.388Z,34.20
2023-08-11T14:48:34.387Z,20.90
2023-08-11T14:51:02.784Z,25.20
2023-08-11T14:53:31.484Z,27.60
2023-08-11T14:55:59.635Z,37.20
2023-08-11T14:58:27.984Z,53.70
2023-08-11T15:00:57.086Z,71.90
2023-08-11T15:03:25.833Z,85.00
2023-08-11T15:05:54.066Z,69.80
2023-08-11T15:08:22.907Z,63.70
2023-08-11T15:10:50.971Z,58.40
2023-08-11T15:13:18.867Z,30.70
2023-08-11T15:15:46.924Z,23.80
2023-08-11T15:18:15.101Z,20.00
2023-08-11T15:20:43.157Z,24.20
2023-08-11T15:23:11.220Z,24.20
2023-08-11T15:25:41.862Z,19.00
2023-08-11T15:28:11.597Z,21.80
2023-08-11T15:30:39.745Z,25.40
2023-08-11T15:33:07.835Z,24.80
2023-08-11T15:35:37.690Z,25.80
2023-08-11T15:38:07.275Z,28.60
2023-08-11T15:40:35.352Z,31.80
2023-08-11T15:43:03.781Z,30.00
2023-08-11T15:45:31.769Z,37.50
2023-08-11T15:47:59.893Z,32.50
2023-08-11T15:50:27.864Z,23.70
2023-08-11T15:52:55.915Z,17.70
2023-08-11T15:55:35.796Z,17.80
2023-08-11T15:58:04.803Z,18.60
2023-08-11T16:00:33.082Z,17.40
2023-08-11T16:03:01.554Z,15.20
2023-08-11T16:05:29.851Z,16.10
2023-08-11T16:07:57.800Z,15.20
2023-08-11T16:10:27.711Z,15.50
2023-08-11T16:12:55.878Z,16.20
2023-08-11T16:15:23.892Z,17.10
2023-08-11T16:17:53.556Z,17.70
2023-08-11T16:20:21.877Z,16.80
2023-08-11T16:22:52.054Z,21.80
2023-08-11T16:25:20.106Z,22.70
2023-08-11T16:27:47.971Z,17.80
2023-08-11T16:30:16.171Z,15.70
2023-08-11T16:32:44.433Z,17.20
2023-08-11T16:35:12.494Z,15.40
2023-08-11T16:37:40.407Z,19.80
2023-08-11T16:40:10.582Z,19.90
2023-08-11T16:42:38.672Z,22.80
2023-08-11T16:45:07.122Z,18.50
2023-08-11T16:47:35.062Z,23.90
2023-08-11T16:50:03.213Z,16.20
2023-08-11T16:52:31.118Z,15.00
2023-08-11T16:54:59.561Z,15.90
2023-08-11T16:57:27.690Z,15.10
2023-08-11T16:59:55.741Z,15.60
2023-08-11T17:02:23.815Z,15.20
2023-08-11T17:04:51.991Z,15.90
2023-08-11T17:07:20.024Z,17.80
2023-08-11T17:09:47.946Z,17.80
2023-08-11T17:12:16.039Z,13.70
2023-08-11T17:14:43.969Z,14.10
2023-08-11T17:17:12.123Z,13.00
2023-08-11T17:19:40.317Z,12.40
2023-08-11T17:22:11.007Z,12.90
2023-08-11T17:24:39.456Z,13.40
2023-08-11T17:27:07.705Z,12.00
2023-08-11T17:29:35.738Z,12.90
2023-08-11T17:32:03.673Z,13.40
2023-08-11T17:34:34.004Z,12.70
2023-08-11T17:39:32.278Z,11.00
2023-08-11T17:42:06.015Z,10.70
2023-08-11T17:44:34.276Z,13.60
2023-08-11T17:47:07.624Z,11.60
2023-08-11T17:49:37.117Z,10.90
2023-08-11T17:52:05.646Z,18.00
2023-08-11T17:54:33.595Z,11.70
2023-08-11T17:57:01.778Z,14.10
2023-08-11T17:59:29.701Z,12.20
2023-08-11T18:01:57.747Z,13.90
2023-08-11T18:04:25.896Z,10.90
2023-08-11T18:06:54.461Z,11.10
2023-08-11T18:09:22.703Z,11.40
2023-08-11T18:11:51.066Z,12.00
2023-08-11T18:14:19.090Z,13.30
2023-08-11T18:16:46.963Z,9.20
2023-08-11T18:19:14.917Z,12.00
2023-08-11T18:21:43.078Z,12.10
2023-08-11T18:24:11.183Z,9.40
2023-08-11T18:26:39.123Z,9.20
2023-08-11T18:29:07.305Z,9.00
2023-08-11T18:31:35.489Z,9.40
2023-08-11T18:34:03.409Z,10.00
2023-08-11T18:36:32.030Z,9.50
2023-08-11T18:39:00.247Z,9.80
2023-08-11T18:41:28.261Z,8.40
2023-08-11T18:43:56.266Z,7.60
2023-08-11T18:46:24.216Z,7.70
2023-08-11T18:48:52.301Z,8.90
2023-08-11T18:51:20.236Z,4.50
2023-08-11T18:53:48.276Z,3.90
2023-08-11T18:56:16.450Z,2.30
2023-08-11T18:58:44.705Z,2.50
2023-08-11T19:01:12.984Z,2.60
2023-08-11T19:03:41.346Z,5.10
2023-08-11T19:06:09.628Z,1.80
2023-08-11T19:08:37.582Z,2.10
2023-08-11T19:11:06.278Z,1.50
2023-08-11T19:13:34.180Z,1.90
2023-08-11T19:16:02.214Z,2.10
2023-08-11T19:18:30.282Z,7.80
2023-08-11T19:20:58.239Z,7.60
2023-08-11T19:23:26.788Z,5.50
2023-08-11T19:25:54.881Z,2.00
2023-08-11T19:28:23.362Z,3.00
2023-08-11T19:30:51.394Z,2.70
2023-08-11T19:33:19.358Z,3.90
2023-08-11T19:35:47.329Z,9.80
2023-08-11T19:38:15.365Z,1.40
2023-08-11T19:40:49.937Z,3.60
2023-08-11T19:43:17.830Z,3.00
2023-08-11T19:45:49.872Z,5.00
2023-08-11T19:48:17.908Z,9.80
2023-08-11T19:50:46.593Z,1.50
2023-08-11T19:53:14.898Z,1.40
2023-08-11T19:55:46.064Z,4.00
2023-08-11T19:58:14.164Z,3.00
2023-08-11T20:00:43.219Z,4.80
2023-08-11T20:03:11.413Z,2.90
2023-08-11T20:05:46.574Z,3.90
2023-08-11T20:08:15.041Z,1.70
2023-08-11T20:10:46.919Z,1.20
2023-08-11T20:13:15.078Z,1.10
2023-08-11T20:15:43.089Z,2.80
2023-08-11T20:18:11.363Z,2.30
2023-08-11T20:20:39.502Z,1.60
2023-08-11T20:23:07.490Z,3.80
2023-08-11T20:25:35.798Z,1.70
2023-08-11T20:28:04.139Z,1.30
2023-08-11T20:30:33.415Z,4.00
2023-08-11T20:33:01.706Z,2.70
2023-08-11T20:35:29.578Z,3.00
2023-08-11T20:37:57.542Z,1.60
2023-08-11T20:40:25.452Z,1.70
2023-08-11T20:42:53.834Z,3.70
2023-08-11T20:45:21.864Z,4.80
2023-08-11T20:47:49.807Z,1.10
2023-08-11T20:50:17.983Z,1.40
2023-08-11T20:52:46.138Z,4.60
2023-08-11T20:55:14.332Z,2.90
2023-08-11T20:57:42.342Z,1.90
2023-08-11T21:00:11.097Z,1.40
2023-08-11T21:02:39.037Z,2.20
2023-08-11T21:05:07.336Z,7.10
2023-08-11T21:07:35.221Z,2.40
2023-08-11T21:10:04.155Z,1.30
2023-08-11T21:12:32.174Z,3.00
2023-08-11T21:15:00.078Z,3.20
2023-08-11T21:17:28.382Z,1.50
2023-08-11T21:19:56.431Z,2.00
2023-08-11T21:22:24.506Z,1.70
2023-08-11T21:24:52.555Z,1.80
2023-08-11T21:27:20.584Z,1.60
2023-08-11T21:29:48.645Z,4.30
2023-08-11T21:32:16.632Z,5.10
2023-08-11T21:34:44.612Z,4.20
2023-08-11T21:37:12.951Z,4.00
2023-08-11T21:39:41.384Z,2.90
2023-08-11T21:42:09.677Z,1.80
2023-08-11T21:44:37.676Z,1.60
2023-08-11T21:47:06.490Z,4.10
2023-08-11T21:49:36.941Z,2.80
2023-08-11T21:52:06.650Z,2.30
2023-08-11T21:54:35.784Z,1.50
2023-08-11T21:57:04.119Z,2.30
2023-08-11T21:59:32.006Z,1.90
2023-08-11T22:01:59.931Z,1.50
2023-08-11T22:04:27.837Z,5.10
2023-08-11T22:06:55.969Z,2.20
2023-08-11T22:09:24.124Z,2.90
2023-08-11T22:11:52.005Z,4.00
2023-08-11T22:14:21.837Z,3.10
2023-08-11T22:16:50.013Z,3.80
2023-08-11T22:19:17.916Z,4.20
2023-08-11T22:21:45.733Z,1.60
2023-08-11T22:24:17.143Z,3.40
2023-08-11T22:26:49.402Z,1.30
2023-08-11T22:29:17.586Z,1.30
2023-08-11T22:31:45.666Z,1.00
2023-08-11T22:34:13.691Z,13.50
2023-08-11T22:36:41.576Z,1.10
2023-08-11T22:39:09.580Z,1.00
2023-08-11T22:41:37.685Z,1.20
2023-08-11T22:44:06.013Z,3.20
2023-08-11T22:46:34.267Z,1.00
2023-08-11T22:49:02.104Z,1.10
2023-08-11T22:51:30.028Z,0.30
2023-08-11T22:53:58.136Z,1.10
2023-08-11T22:56:26.276Z,0.40
2023-08-11T22:58:54.340Z,0.40
2023-08-11T23:01:22.562Z,0.30
2023-08-11T23:03:50.508Z,0.30
2023-08-11T23:06:18.688Z,1.60
2023-08-11T23:08:46.776Z,0.70
2023-08-11T23:11:14.842Z,0.50
2023-08-11T23:13:42.838Z,0.50
2023-08-11T23:16:10.835Z,0.50
2023-08-11T23:18:38.754Z,0.40
2023-08-11T23:21:06.676Z,0.70
2023-08-11T23:23:34.762Z,0.80
2023-08-11T23:26:02.734Z,3.80
2023-08-11T23:28:30.886Z,1.90
2023-08-11T23:30:58.898Z,0.50
2023-08-11T23:33:27.070Z,2.90
2023-08-11T23:35:55.852Z,2.10
2023-08-11T23:38:24.266Z,2.40
2023-08-11T23:40:52.227Z,1.20
2023-08-11T23:43:20.088Z,1.30
2023-08-11T23:45:48.154Z,1.60
2023-08-11T23:48:17.232Z,2.40
2023-08-11T23:50:45.649Z,2.70
2023-08-11T23:53:13.794Z,3.00
2023-08-11T23:55:42.200Z,0.80
2023-08-11T23:58:10.069Z,2.20
